createdAt,value
2022-08-19T00:01:53.300Z,98509.66
2022-08-19T00:04:21.837Z,98517.69
2022-08-19T00:06:48.291Z,98518.44
2022-08-19T00:09:16.127Z,98517.41
2022-08-19T00:11:42.899Z,98525.47
2022-08-19T00:14:11.078Z,98521.00
2022-08-19T00:16:37.894Z,98516.56
2022-08-19T00:19:04.372Z,98512.09
2022-08-19T00:21:31.200Z,98502.53
2022-08-19T00:24:01.161Z,98500.66
2022-08-19T00:26:28.626Z,98515.19
2022-08-19T00:28:55.295Z,98526.94
2022-08-19T00:31:21.755Z,98533.66
2022-08-19T00:33:51.514Z,98545.53
2022-08-19T00:36:18.330Z,98548.09
2022-08-19T00:38:44.960Z,98545.41
2022-08-19T00:41:15.482Z,98546.25
2022-08-19T00:43:42.226Z,98559.38
2022-08-19T00:46:08.819Z,98563.66
2022-08-19T00:48:37.065Z,98560.81
2022-08-19T00:51:05.287Z,98556.00
2022-08-19T00:53:32.714Z,98555.00
2022-08-19T00:56:00.453Z,98551.88
2022-08-19T00:58:29.306Z,98545.03
2022-08-19T01:00:55.690Z,98544.25
2022-08-19T01:03:22.790Z,98548.06
2022-08-19T01:05:50.756Z,98540.03
2022-08-19T01:08:18.263Z,98552.75
2022-08-19T01:10:47.557Z,98544.09
2022-08-19T01:13:18.487Z,98538.56
2022-08-19T01:15:47.338Z,98531.63
2022-08-19T01:18:15.381Z,98539.25
2022-08-19T01:20:42.807Z,98529.75
2022-08-19T01:23:09.469Z,98534.03
2022-08-19T01:25:37.983Z,98543.38
2022-08-19T01:28:10.636Z,98539.81
2022-08-19T01:30:38.209Z,98542.69
2022-08-19T01:33:06.651Z,98562.44
2022-08-19T01:35:33.432Z,98571.28
2022-08-19T01:38:01.271Z,98578.41
2022-08-19T01:40:31.673Z,98564.06
2022-08-19T01:42:58.403Z,98563.03
2022-08-19T01:45:26.036Z,98562.34
2022-08-19T01:48:01.623Z,98552.53
2022-08-19T01:50:29.397Z,98553.75
2022-08-19T01:53:06.404Z,98545.34
2022-08-19T01:55:34.094Z,98543.25
2022-08-19T01:58:02.657Z,98548.75
2022-08-19T02:00:30.580Z,98553.31
2022-08-19T02:02:57.370Z,98560.63
2022-08-19T02:05:24.047Z,98567.63
2022-08-19T02:07:50.533Z,98581.13
2022-08-19T02:10:22.353Z,98570.34
2022-08-19T02:12:50.436Z,98564.22
2022-08-19T02:15:17.362Z,98553.22
2022-08-19T02:17:44.665Z,98544.88
2022-08-19T02:20:11.388Z,98533.25
2022-08-19T02:22:37.907Z,98533.81
2022-08-19T02:25:05.854Z,98536.31
2022-08-19T02:27:32.259Z,98554.91
2022-08-19T02:29:58.773Z,98557.13
2022-08-19T02:32:25.150Z,98571.63
2022-08-19T02:34:51.531Z,98568.97
2022-08-19T02:37:36.725Z,98557.19
2022-08-19T02:40:04.236Z,98556.00
2022-08-19T02:42:39.041Z,98553.13
2022-08-19T02:45:06.543Z,98545.97
2022-08-19T02:47:32.886Z,98542.00
2022-08-19T02:49:59.367Z,98538.09
2022-08-19T02:52:26.464Z,98541.69
2022-08-19T02:54:52.869Z,98541.38
2022-08-19T02:57:19.252Z,98551.28
2022-08-19T02:59:45.656Z,98561.56
2022-08-19T03:02:11.997Z,98566.00
2022-08-19T03:04:38.374Z,98564.44
2022-08-19T03:07:10.725Z,98569.13
2022-08-19T03:09:38.375Z,98566.47
2022-08-19T03:12:05.470Z,98571.75
2022-08-19T03:14:32.642Z,98574.31
2022-08-19T03:16:59.443Z,98562.72
2022-08-19T03:19:25.852Z,98554.00
2022-08-19T03:21:52.475Z,98555.56
2022-08-19T03:24:19.783Z,98555.84
2022-08-19T03:26:47.722Z,98557.03
2022-08-19T03:29:14.265Z,98557.56
2022-08-19T03:31:52.531Z,98559.00
2022-08-19T03:34:27.186Z,98560.31
2022-08-19T03:36:55.408Z,98568.88
2022-08-19T03:39:22.264Z,98571.13
2022-08-19T03:42:31.972Z,98564.66
2022-08-19T03:44:38.791Z,98569.53
2022-08-19T03:47:06.283Z,98571.09
2022-08-19T03:49:34.508Z,98572.00
2022-08-19T03:52:05.973Z,98583.13
2022-08-19T03:54:32.364Z,98566.84
2022-08-19T03:56:58.832Z,98583.69
2022-08-19T03:59:32.063Z,98573.88
2022-08-19T04:02:00.590Z,98577.16
2022-08-19T04:04:29.293Z,98583.63
2022-08-19T04:06:55.992Z,98587.03
2022-08-19T04:09:22.446Z,98591.66
2022-08-19T04:11:54.809Z,98581.28
2022-08-19T04:14:23.182Z,98579.09
2022-08-19T04:16:49.941Z,98585.78
2022-08-19T04:19:17.610Z,98587.91
2022-08-19T04:21:46.087Z,98585.47
2022-08-19T04:24:13.184Z,98580.97
2022-08-19T04:26:40.081Z,98569.75
2022-08-19T04:29:12.321Z,98570.47
2022-08-19T04:31:40.287Z,98573.66
2022-08-19T04:34:07.432Z,98581.19
2022-08-19T04:36:35.637Z,98583.75
2022-08-19T04:39:04.435Z,98589.94
2022-08-19T04:41:49.322Z,98589.22
2022-08-19T04:44:19.038Z,98576.75
2022-08-19T04:46:51.374Z,98569.59
2022-08-19T04:49:20.289Z,98573.56
2022-08-19T04:51:48.666Z,98587.91
2022-08-19T04:54:15.850Z,98587.38
2022-08-19T04:56:57.400Z,98588.53
2022-08-19T04:59:23.817Z,98585.72
2022-08-19T05:01:50.928Z,98590.94
2022-08-19T05:04:21.388Z,98583.38
2022-08-19T05:06:49.570Z,98581.13
2022-08-19T05:09:16.289Z,98574.28
2022-08-19T05:11:43.202Z,98575.81
2022-08-19T05:14:10.287Z,98571.72
2022-08-19T05:16:36.651Z,98584.84
2022-08-19T05:19:21.549Z,98587.91
2022-08-19T05:22:06.780Z,98595.09
2022-08-19T05:24:35.194Z,98606.00
2022-08-19T05:27:03.552Z,98606.69
2022-08-19T05:29:36.346Z,98621.97
2022-08-19T05:32:06.051Z,98634.31
2022-08-19T05:34:33.906Z,98626.34
2022-08-19T05:37:01.925Z,98632.97
2022-08-19T05:39:30.077Z,98636.25
2022-08-19T05:41:59.513Z,98640.75
2022-08-19T05:44:26.646Z,98643.50
2022-08-19T05:46:56.034Z,98652.94
2022-08-19T05:49:23.665Z,98654.63
2022-08-19T05:51:50.333Z,98670.38
2022-08-19T05:54:17.368Z,98667.81
2022-08-19T05:56:48.746Z,98669.50
2022-08-19T05:59:17.126Z,98680.34
2022-08-19T06:01:46.807Z,98680.56
2022-08-19T06:04:14.678Z,98676.28
2022-08-19T06:06:41.189Z,98677.47
2022-08-19T06:09:08.571Z,98685.97
2022-08-19T06:11:37.409Z,98698.72
2022-08-19T06:14:05.357Z,98706.31
2022-08-19T06:16:36.192Z,98710.28
2022-08-19T06:19:07.031Z,98721.34
2022-08-19T06:21:33.950Z,98735.28
2022-08-19T06:24:00.771Z,98733.97
2022-08-19T06:26:27.737Z,98738.44
2022-08-19T06:28:54.556Z,98744.50
2022-08-19T06:31:24.056Z,98751.22
2022-08-19T06:33:50.934Z,98750.78
2022-08-19T06:36:28.557Z,98753.13
2022-08-19T06:38:55.256Z,98759.59
2022-08-19T06:41:21.623Z,98752.97
2022-08-19T06:43:49.976Z,98768.50
2022-08-19T06:46:20.815Z,98762.34
2022-08-19T06:48:48.358Z,98760.31
2022-08-19T06:51:16.728Z,98757.03
2022-08-19T06:53:47.965Z,98763.63
2022-08-19T06:56:17.032Z,98770.94
2022-08-19T06:58:43.719Z,98777.94
2022-08-19T07:01:10.180Z,98778.81
2022-08-19T07:03:37.809Z,98789.59
2022-08-19T07:06:07.154Z,98794.63
2022-08-19T07:11:09.373Z,98794.63
2022-08-19T07:13:38.092Z,98789.47
2022-08-19T07:16:06.221Z,98798.34
2022-08-19T07:18:33.923Z,98785.31
2022-08-19T07:21:13.327Z,98781.72
2022-08-19T07:23:40.194Z,98774.50
2022-08-19T07:26:27.900Z,98770.91
2022-08-19T07:28:55.257Z,98772.34
2022-08-19T07:31:23.213Z,98773.34
2022-08-19T07:33:51.415Z,98777.66
2022-08-19T07:36:22.496Z,98786.25
2022-08-19T07:38:52.166Z,98794.63
2022-08-19T07:41:21.774Z,98792.13
2022-08-19T07:43:48.880Z,98803.16
2022-08-19T07:46:16.035Z,98804.53
2022-08-19T07:48:43.501Z,98799.31
2022-08-19T07:51:12.248Z,98796.00
2022-08-19T07:53:40.825Z,98803.03
2022-08-19T07:56:09.266Z,98795.25
2022-08-19T07:58:38.993Z,98802.84
2022-08-19T08:01:06.411Z,98795.56
2022-08-19T08:03:51.314Z,98799.28
2022-08-19T08:06:36.178Z,98801.28
2022-08-19T08:09:16.630Z,98800.41
2022-08-19T08:11:50.610Z,98805.88
2022-08-19T08:14:29.212Z,98808.72
2022-08-19T08:16:56.586Z,98810.31
2022-08-19T08:19:26.523Z,98816.78
2022-08-19T08:21:54.415Z,98802.94
2022-08-19T08:24:21.468Z,98810.75
2022-08-19T08:26:52.018Z,98808.38
2022-08-19T08:29:20.611Z,98815.22
2022-08-19T08:31:47.987Z,98824.06
2022-08-19T08:34:25.290Z,98819.91
2022-08-19T08:36:53.062Z,98821.34
2022-08-19T08:39:20.376Z,98827.88
2022-08-19T08:41:54.060Z,98832.75
2022-08-19T08:44:39.112Z,98833.00
2022-08-19T08:47:13.430Z,98843.66
2022-08-19T08:49:46.246Z,98835.34
2022-08-19T08:52:16.548Z,98848.97
2022-08-19T08:54:48.920Z,98851.56
2022-08-19T08:57:36.973Z,98848.84
2022-08-19T09:00:15.445Z,98843.94
2022-08-19T09:02:43.535Z,98849.56
2022-08-19T09:05:11.062Z,98845.09
2022-08-19T09:07:51.105Z,98848.94
2022-08-19T09:10:17.760Z,98850.69
2022-08-19T09:12:53.337Z,98849.13
2022-08-19T09:15:27.756Z,98856.28
2022-08-19T09:18:02.655Z,98856.56
2022-08-19T09:20:29.554Z,98849.44
2022-08-19T09:22:55.923Z,98852.22
2022-08-19T09:25:26.699Z,98852.22
2022-08-19T09:28:01.182Z,98849.81
2022-08-19T09:30:31.382Z,98847.22
2022-08-19T09:32:58.123Z,98833.69
2022-08-19T09:35:25.665Z,98828.34
2022-08-19T09:37:57.596Z,98832.00
2022-08-19T09:40:26.689Z,98822.25
2022-08-19T09:42:53.706Z,98823.72
2022-08-19T09:45:24.088Z,98819.97
2022-08-19T09:47:53.896Z,98829.50
2022-08-19T09:50:21.602Z,98823.06
2022-08-19T09:52:55.554Z,98811.41
2022-08-19T09:55:25.034Z,98816.75
2022-08-19T09:57:57.879Z,98813.34
2022-08-19T10:00:24.280Z,98822.81
2022-08-19T10:02:50.659Z,98820.66
2022-08-19T10:05:38.506Z,98823.63
2022-08-19T10:08:13.133Z,98825.38
2022-08-19T10:10:46.669Z,98833.44
2022-08-19T10:13:14.446Z,98833.56
2022-08-19T10:15:44.930Z,98824.97
2022-08-19T10:18:14.407Z,98829.50
2022-08-19T10:20:42.680Z,98826.06
2022-08-19T10:23:09.900Z,98834.75
2022-08-19T10:25:36.313Z,98831.53
2022-08-19T10:28:05.257Z,98835.34
2022-08-19T10:30:37.574Z,98832.47
2022-08-19T10:33:08.455Z,98841.69
2022-08-19T10:35:56.423Z,98841.97
2022-08-19T10:38:31.416Z,98852.91
2022-08-19T10:40:58.544Z,98860.66
2022-08-19T10:43:25.985Z,98854.34
2022-08-19T10:46:00.272Z,98853.63
2022-08-19T10:48:26.752Z,98857.84
2022-08-19T10:51:12.382Z,98854.19
2022-08-19T10:53:49.877Z,98858.75
2022-08-19T10:56:35.239Z,98863.50
2022-08-19T10:59:02.740Z,98864.13
2022-08-19T11:01:30.842Z,98866.34
2022-08-19T11:03:58.384Z,98871.66
2022-08-19T11:06:26.101Z,98867.94
2022-08-19T11:08:55.394Z,98881.19
2022-08-19T11:11:22.780Z,98870.59
2022-08-19T11:13:50.858Z,98880.31
2022-08-19T11:16:20.372Z,98878.59
2022-08-19T11:18:49.082Z,98884.50
2022-08-19T11:21:20.105Z,98887.94
2022-08-19T11:23:51.257Z,98894.09
2022-08-19T11:26:18.638Z,98897.16
2022-08-19T11:28:45.013Z,98896.31
2022-08-19T11:31:13.132Z,98898.19
2022-08-19T11:33:39.840Z,98901.78
2022-08-19T11:36:06.452Z,98909.47
2022-08-19T11:38:32.965Z,98910.91
2022-08-19T11:41:00.645Z,98907.84
2022-08-19T11:43:27.848Z,98915.94
2022-08-19T11:45:54.768Z,98909.28
2022-08-19T11:48:23.071Z,98912.38
2022-08-19T11:50:53.564Z,98904.78
2022-08-19T11:53:21.029Z,98894.38
2022-08-19T11:55:48.303Z,98895.06
2022-08-19T11:58:18.971Z,98896.75
2022-08-19T12:00:46.202Z,98898.84
2022-08-19T12:03:13.349Z,98899.88
2022-08-19T12:05:40.905Z,98913.63
2022-08-19T12:08:07.708Z,98915.44
2022-08-19T12:10:34.580Z,98914.94
2022-08-19T12:13:01.107Z,98921.38
2022-08-19T12:15:37.059Z,98928.38
2022-08-19T12:18:04.560Z,98920.84
2022-08-19T12:20:31.849Z,98918.81
2022-08-19T12:23:03.194Z,98918.38
2022-08-19T12:25:29.591Z,98925.81
2022-08-19T12:27:57.547Z,98931.34
2022-08-19T12:30:24.730Z,98932.31
2022-08-19T12:32:53.391Z,98928.63
2022-08-19T12:35:22.081Z,98927.78
2022-08-19T12:37:56.538Z,98926.44
2022-08-19T12:40:26.307Z,98926.59
2022-08-19T12:42:53.256Z,98929.94
2022-08-19T12:45:20.087Z,98927.25
2022-08-19T12:47:49.512Z,98922.28
2022-08-19T12:50:16.088Z,98925.03
2022-08-19T12:52:43.411Z,98927.69
2022-08-19T12:55:10.363Z,98929.25
2022-08-19T12:57:36.827Z,98932.09
2022-08-19T13:00:14.511Z,98936.19
2022-08-19T13:02:44.913Z,98932.09
2022-08-19T13:05:12.630Z,98919.91
2022-08-19T13:07:42.269Z,98920.84
2022-08-19T13:10:09.886Z,98923.69
2022-08-19T13:12:36.660Z,98916.66
2022-08-19T13:15:03.760Z,98922.38
2022-08-19T13:17:38.061Z,98923.22
2022-08-19T13:20:06.133Z,98919.81
2022-08-19T13:22:32.582Z,98921.28
2022-08-19T13:24:59.009Z,98926.03
2022-08-19T13:27:25.397Z,98927.59
2022-08-19T13:30:10.534Z,98920.56
2022-08-19T13:32:55.641Z,98917.06
2022-08-19T13:35:22.214Z,98921.91
2022-08-19T13:37:48.719Z,98923.81
2022-08-19T13:40:19.865Z,98922.47
2022-08-19T13:42:48.614Z,98926.53
2022-08-19T13:45:16.568Z,98921.19
2022-08-19T13:47:45.905Z,98919.47
2022-08-19T13:50:17.044Z,98924.72
2022-08-19T13:52:44.029Z,98922.72
2022-08-19T13:55:11.861Z,98927.25
2022-08-19T13:57:40.160Z,98922.94
2022-08-19T14:00:16.154Z,98921.22
2022-08-19T14:02:42.672Z,98926.13
2022-08-19T14:05:10.770Z,98922.16
2022-08-19T14:07:37.471Z,98920.97
2022-08-19T14:10:05.470Z,98919.28
2022-08-19T14:12:33.062Z,98919.03
2022-08-19T14:14:59.886Z,98922.75
2022-08-19T14:17:26.278Z,98926.59
2022-08-19T14:19:59.581Z,98935.34
2022-08-19T14:22:29.821Z,98929.16
2022-08-19T14:24:57.273Z,98932.41
2022-08-19T14:27:26.116Z,98922.31
2022-08-19T14:29:54.577Z,98921.91
2022-08-19T14:32:21.197Z,98923.25
2022-08-19T14:34:47.571Z,98931.59
2022-08-19T14:37:17.478Z,98933.72
2022-08-19T14:39:46.866Z,98940.38
2022-08-19T14:42:15.481Z,98943.09
2022-08-19T14:44:42.246Z,98945.16
2022-08-19T14:47:10.079Z,98949.28
2022-08-19T14:49:41.723Z,98949.44
2022-08-19T14:52:11.235Z,98950.88
2022-08-19T14:54:37.597Z,98947.97
2022-08-19T14:57:04.073Z,98947.38
2022-08-19T14:59:30.495Z,98952.16
2022-08-19T15:01:56.978Z,98953.03
2022-08-19T15:04:23.426Z,98946.81
2022-08-19T15:06:51.601Z,98944.41
2022-08-19T15:09:17.976Z,98940.34
2022-08-19T15:11:44.382Z,98926.03
2022-08-19T15:14:11.132Z,98926.94
2022-08-19T15:16:38.920Z,98925.09
2022-08-19T15:19:05.300Z,98924.81
2022-08-19T15:21:31.733Z,98923.94
2022-08-19T15:23:58.619Z,98927.22
2022-08-19T15:26:27.288Z,98916.91
2022-08-19T15:28:53.723Z,98922.38
2022-08-19T15:31:28.290Z,98927.25
2022-08-19T15:33:58.566Z,98928.00
2022-08-19T15:36:26.207Z,98929.72
2022-08-19T15:38:53.263Z,98938.06
2022-08-19T15:41:24.274Z,98938.63
2022-08-19T15:43:52.332Z,98927.88
2022-08-19T15:46:20.405Z,98925.84
2022-08-19T15:48:55.839Z,98920.06
2022-08-19T15:51:23.599Z,98923.28
2022-08-19T15:53:50.219Z,98920.53
2022-08-19T15:56:16.600Z,98917.38
2022-08-19T15:59:01.822Z,98918.09
2022-08-19T16:01:46.750Z,98915.38
2022-08-19T16:04:31.629Z,98917.09
2022-08-19T16:06:59.544Z,98912.19
2022-08-19T16:09:30.194Z,98902.44
2022-08-19T16:12:01.757Z,98907.00
2022-08-19T16:14:29.322Z,98895.78
2022-08-19T16:16:56.876Z,98900.25
2022-08-19T16:19:23.442Z,98904.84
2022-08-19T16:21:51.273Z,98911.31
2022-08-19T16:24:18.368Z,98914.38
2022-08-19T16:26:44.891Z,98916.53
2022-08-19T16:29:13.021Z,98911.91
2022-08-19T16:31:41.510Z,98913.69
2022-08-19T16:34:07.957Z,98899.25
2022-08-19T16:36:34.564Z,98907.63
2022-08-19T16:39:01.013Z,98906.44
2022-08-19T16:41:28.021Z,98915.44
2022-08-19T16:43:54.768Z,98916.59
2022-08-19T16:46:22.686Z,98919.88
2022-08-19T16:48:49.700Z,98917.94
2022-08-19T16:51:16.234Z,98909.72
2022-08-19T16:53:43.660Z,98907.84
2022-08-19T16:56:10.883Z,98895.34
2022-08-19T16:58:37.318Z,98895.19
2022-08-19T17:01:04.679Z,98896.53
2022-08-19T17:03:36.575Z,98899.03
2022-08-19T17:06:08.144Z,98900.59
2022-08-19T17:08:48.557Z,98903.16
2022-08-19T17:11:18.462Z,98899.56
2022-08-19T17:13:50.985Z,98908.63
2022-08-19T17:16:19.821Z,98913.53
2022-08-19T17:18:46.276Z,98909.22
2022-08-19T17:21:13.272Z,98915.53
2022-08-19T17:23:43.461Z,98915.25
2022-08-19T17:26:16.774Z,98907.66
2022-08-19T17:28:47.221Z,98910.94
2022-08-19T17:31:13.694Z,98909.94
2022-08-19T17:33:41.297Z,98917.66
2022-08-19T17:36:08.910Z,98923.28
2022-08-19T17:38:35.915Z,98923.28
2022-08-19T17:41:05.996Z,98921.44
2022-08-19T17:43:40.012Z,98922.56
2022-08-19T17:46:11.195Z,98913.84
2022-08-19T17:48:38.890Z,98906.50
2022-08-19T17:51:18.559Z,98911.25
2022-08-19T17:53:49.103Z,98904.59
2022-08-19T17:56:15.727Z,98908.63
2022-08-19T17:58:42.235Z,98924.44
2022-08-19T18:01:13.180Z,98924.59
2022-08-19T18:03:40.298Z,98944.91
2022-08-19T18:06:08.009Z,98951.53
2022-08-19T18:08:36.858Z,98962.56
2022-08-19T18:11:03.807Z,98966.91
2022-08-19T18:13:30.874Z,98974.22
2022-08-19T18:16:00.255Z,98985.00
2022-08-19T18:18:28.380Z,98981.97
2022-08-19T18:20:56.069Z,98992.19
2022-08-19T18:23:44.814Z,99005.69
2022-08-19T18:26:10.722Z,99022.78
2022-08-19T18:28:46.850Z,99029.56
2022-08-19T18:31:17.159Z,99037.75
2022-08-19T18:33:45.565Z,99032.16
2022-08-19T18:36:12.218Z,99043.22
2022-08-19T18:38:57.284Z,99040.03
2022-08-19T18:41:43.206Z,99033.56
2022-08-19T18:44:35.764Z,99030.25
2022-08-19T18:47:20.835Z,99021.81
2022-08-19T18:49:51.216Z,99024.38
2022-08-19T18:52:18.559Z,99023.53
2022-08-19T18:54:47.287Z,99031.16
2022-08-19T18:57:16.720Z,99020.13
2022-08-19T18:59:43.644Z,99016.38
2022-08-19T19:02:12.166Z,99008.91
2022-08-19T19:04:38.816Z,99007.78
2022-08-19T19:07:06.132Z,99009.50
2022-08-19T19:09:32.601Z,99005.78
2022-08-19T19:12:00.326Z,99002.00
2022-08-19T19:14:48.178Z,99003.63
2022-08-19T19:17:15.455Z,99009.94
2022-08-19T19:19:42.731Z,99011.38
2022-08-19T19:22:14.841Z,99002.94
2022-08-19T19:24:44.789Z,98999.44
2022-08-19T19:27:12.985Z,98999.44
2022-08-19T19:29:40.100Z,99001.47
2022-08-19T19:32:07.904Z,98988.34
2022-08-19T19:34:34.359Z,98988.25
2022-08-19T19:37:02.621Z,98983.94
2022-08-19T19:39:42.978Z,98985.09
2022-08-19T19:42:19.610Z,98991.13
2022-08-19T19:44:48.908Z,99008.22
2022-08-19T19:47:16.083Z,99002.91
2022-08-19T19:50:03.971Z,99005.63
2022-08-19T19:52:28.987Z,99011.94
2022-08-19T19:54:56.797Z,99017.13
2022-08-19T19:57:26.864Z,99009.53
2022-08-19T19:59:54.335Z,99007.38
2022-08-19T20:02:22.029Z,99008.97
2022-08-19T20:04:51.214Z,99010.69
2022-08-19T20:07:17.810Z,98995.59
2022-08-19T20:09:59.370Z,98983.69
2022-08-19T20:12:26.362Z,99000.78
2022-08-19T20:14:52.723Z,99019.44
2022-08-19T20:17:20.633Z,99016.44
2022-08-19T20:19:47.974Z,99018.59
2022-08-19T20:22:14.893Z,99020.75
2022-08-19T20:24:42.707Z,99027.47
2022-08-19T20:27:10.766Z,99032.53
2022-08-19T20:29:41.473Z,99036.97
2022-08-19T20:32:10.653Z,99051.06
2022-08-19T20:34:37.478Z,99054.38
2022-08-19T20:37:03.967Z,99060.53
2022-08-19T20:39:30.322Z,99043.75
2022-08-19T20:41:56.802Z,99025.50
2022-08-19T20:44:25.196Z,99029.53
2022-08-19T20:46:55.299Z,99028.38
2022-08-19T20:49:27.214Z,99025.94
2022-08-19T20:51:54.559Z,99033.25
2022-08-19T20:54:21.691Z,99038.13
2022-08-19T20:56:48.037Z,99044.31
2022-08-19T20:59:15.630Z,99048.34
2022-08-19T21:01:43.150Z,99045.72
2022-08-19T21:04:10.658Z,99037.69
2022-08-19T21:06:38.149Z,99035.41
2022-08-19T21:09:04.849Z,99034.97
2022-08-19T21:11:32.334Z,99016.31
2022-08-19T21:13:59.084Z,99018.47
2022-08-19T21:16:25.485Z,99014.31
2022-08-19T21:18:51.994Z,99027.22
2022-08-19T21:21:18.449Z,99028.94
2022-08-19T21:23:44.807Z,99029.66
2022-08-19T21:26:11.274Z,99020.59
2022-08-19T21:28:37.669Z,99025.03
2022-08-19T21:31:05.482Z,99031.66
2022-08-19T21:33:32.222Z,99022.91
2022-08-19T21:35:59.435Z,99017.28
2022-08-19T21:38:26.063Z,99030.66
2022-08-19T21:40:52.459Z,99039.00
2022-08-19T21:43:18.936Z,99025.78
2022-08-19T21:45:45.967Z,99019.19
2022-08-19T21:48:14.722Z,99006.69
2022-08-19T21:50:41.723Z,99011.41
2022-08-19T21:53:08.285Z,99027.50
2022-08-19T21:55:38.274Z,99021.16
2022-08-19T21:58:04.880Z,99014.28
2022-08-19T22:00:32.337Z,99010.72
2022-08-19T22:02:58.804Z,99001.25
2022-08-19T22:05:26.075Z,99004.81
2022-08-19T22:07:53.655Z,99012.59
2022-08-19T22:10:21.350Z,99009.28
2022-08-19T22:12:51.749Z,98993.34
2022-08-19T22:15:20.513Z,99004.22
2022-08-19T22:17:47.603Z,99003.97
2022-08-19T22:20:15.527Z,99020.16
2022-08-19T22:22:47.438Z,99025.75
2022-08-19T22:25:31.152Z,99033.75
2022-08-19T22:28:00.599Z,99030.63
2022-08-19T22:30:28.277Z,99036.84
2022-08-19T22:33:02.742Z,99037.69
2022-08-19T22:35:31.460Z,99033.81
2022-08-19T22:37:58.990Z,99025.47
2022-08-19T22:40:26.540Z,99015.13
2022-08-19T22:43:22.301Z,99028.09
2022-08-19T22:45:49.739Z,99041.69
2022-08-19T22:48:18.720Z,99041.41
2022-08-19T22:51:05.120Z,99039.97
2022-08-19T22:53:32.920Z,99038.66
2022-08-19T22:55:59.523Z,99040.69
2022-08-19T22:58:28.259Z,99037.81
2022-08-19T23:00:54.863Z,99054.91
2022-08-19T23:03:21.331Z,99048.56
2022-08-19T23:05:47.937Z,99047.56
2022-08-19T23:08:17.750Z,99039.97
2022-08-19T23:10:44.222Z,99029.34
2022-08-19T23:13:12.748Z,99029.09
2022-08-19T23:15:39.110Z,99030.94
2022-08-19T23:18:05.803Z,99035.53
2022-08-19T23:20:34.440Z,99031.50
2022-08-19T23:23:02.824Z,99025.78
2022-08-19T23:25:30.443Z,99023.75
2022-08-19T23:28:15.537Z,99021.47
2022-08-19T23:30:44.617Z,99009.97
2022-08-19T23:33:46.546Z,99001.66
2022-08-19T23:36:17.808Z,99010.41
2022-08-19T23:38:45.069Z,99004.78
2022-08-19T23:41:12.875Z,99004.38
2022-08-19T23:43:40.371Z,99003.09
2022-08-19T23:46:11.325Z,99010.22
2022-08-19T23:48:38.311Z,99017.53
2022-08-19T23:51:06.341Z,99009.06
2022-08-19T23:53:32.746Z,99015.22
2022-08-19T23:55:59.674Z,99009.91
2022-08-19T23:58:30.116Z,99004.78
